»·PEaware :: AAL465 KSAN-KSJC

AAL465 :: KSAN-KSJC

FLIGHT INFORMATION

Flight Status: Arrived
Operator:
American Airlines
More flights by this operator :: More flights under this callsign
Pilot: Tamas B. (15764)
Aircraft: BOEING 757-200
(B752)
More flights by this aircraft type
Origin: KSAN San Diego Intl-Lindbergh
United States
Destination: KSJC Mineta San Jose Intl
United States
More flights between these airports :: More routes between these airports
Route: PADRZ2 IKAYE TESEA SCTRR TROXX SILCN4
File this flight plan on PilotEdge
Remarks: PBN / A1B3B4B5C4D4O4 DOF / 180110 REG / N537SB EET / KZOA0045 PER / D RMK / TCAS SIMBRIEF
Altitude:
(Current/Filed)
40,000ft
Speed:
(Current/Filed)
462kts
Departed: 10-Jan-18 08:37 AM
Arrived: 10-Jan-18 09:45 AM
Distance/Time
Traveled:
363nm/1:08
Distance/Time
To Go:
Arrived

Flight Plot

Page will automatically refresh every two minutes.

Flight plan parsing failed; only flown route is shown


Map Options




Map Legend


Flown Route
Filed Route
Departure Airport
Arrival Airport
Navaid (VOR, NDB)
Fix

Horizontal Profiles

Position Reports

Time Latitude Longitude Heading Altitude Ground
Speed
10-Jan-18 08:12 32.733919 -117.200423 259 29ft 0kts
10-Jan-18 08:13 32.733919 -117.200423 259 29ft 0kts
10-Jan-18 08:14 32.733919 -117.200423 259 29ft 0kts
10-Jan-18 08:15 32.733919 -117.200423 259 29ft 0kts
10-Jan-18 08:16 32.733920 -117.200418 259 29ft 2kts
10-Jan-18 08:17 32.733727 -117.199668 350 28ft 1kts
10-Jan-18 08:18 32.733717 -117.199666 353 28ft 0kts
10-Jan-18 08:19 32.733717 -117.199666 353 28ft 0kts
10-Jan-18 08:20 32.733717 -117.199666 353 28ft 0kts
10-Jan-18 08:21 32.733717 -117.199666 353 28ft 0kts
10-Jan-18 08:22 32.733717 -117.199666 353 28ft 0kts
10-Jan-18 08:23 32.733717 -117.199666 353 28ft 0kts
10-Jan-18 08:24 32.733717 -117.199666 353 28ft 0kts
10-Jan-18 08:25 32.733717 -117.199666 353 28ft 0kts
10-Jan-18 08:26 32.733717 -117.199666 353 28ft 0kts
10-Jan-18 08:27 32.733717 -117.199666 353 28ft 0kts
10-Jan-18 08:28 32.733717 -117.199666 353 28ft 0kts
10-Jan-18 08:29 32.733717 -117.199666 353 28ft 0kts
10-Jan-18 08:30 32.733717 -117.199666 353 28ft 0kts
10-Jan-18 08:31 32.733717 -117.199666 353 28ft 0kts
10-Jan-18 08:32 32.733717 -117.199666 353 28ft 0kts
10-Jan-18 08:33 32.733717 -117.199666 353 28ft 0kts
10-Jan-18 08:34 32.733717 -117.199666 353 28ft 0kts
10-Jan-18 08:35 32.734298 -117.199578 15 28ft 4kts
10-Jan-18 08:36 32.734286 -117.196895 105 28ft 22kts
10-Jan-18 08:37 32.732352 -117.188999 106 28ft 29kts
10-Jan-18 08:38 32.730442 -117.181077 107 29ft 18kts
10-Jan-18 08:39 32.729494 -117.176886 81 29ft 0kts
10-Jan-18 08:40 32.729494 -117.176886 81 29ft 0kts
10-Jan-18 08:41 32.729494 -117.176886 81 29ft 0kts
10-Jan-18 08:42 32.730553 -117.177307 285 29ft 32kts
10-Jan-18 08:43 32.745891 -117.219073 299 1628ft 206kts
10-Jan-18 08:44 32.779189 -117.282449 299 5773ft 240kts
10-Jan-18 08:45 32.815731 -117.345348 308 10389ft 240kts
10-Jan-18 08:46 32.864614 -117.421218 309 12737ft 329kts
10-Jan-18 08:47 32.920352 -117.507868 310 15001ft 338kts
10-Jan-18 08:48 32.977896 -117.597552 310 18442ft 353kts
10-Jan-18 08:49 33.037354 -117.690438 310 21884ft 367kts
10-Jan-18 08:50 33.103322 -117.771310 321 23095ft 368kts
10-Jan-18 08:51 33.165053 -117.834318 321 23110ft 370kts
10-Jan-18 08:52 33.239047 -117.917541 318 26066ft 380kts
10-Jan-18 08:53 33.314526 -118.007663 318 28614ft 391kts
10-Jan-18 08:54 33.388811 -118.096773 318 31724ft 376kts
10-Jan-18 08:55 33.460790 -118.183110 319 34336ft 363kts
10-Jan-18 08:56 33.531111 -118.267524 319 36199ft 360kts
10-Jan-18 08:57 33.600933 -118.352227 319 37563ft 360kts
10-Jan-18 08:58 33.671257 -118.436760 319 38671ft 359kts
10-Jan-18 08:59 33.741395 -118.521599 319 39556ft 359kts
10-Jan-18 09:00 33.811046 -118.606220 319 40057ft 359kts
10-Jan-18 09:01 33.879418 -118.689371 318 40054ft 369kts
10-Jan-18 09:02 33.951209 -118.777039 318 40052ft 368kts
10-Jan-18 09:03 34.023023 -118.864866 318 40055ft 372kts
10-Jan-18 09:04 34.095653 -118.953973 318 40056ft 377kts
10-Jan-18 09:05 34.166828 -119.040534 318 40071ft 382kts
10-Jan-18 09:06 34.241969 -119.130046 318 40064ft 382kts
10-Jan-18 09:07 34.317370 -119.220376 318 40061ft 382kts
10-Jan-18 09:08 34.392669 -119.310335 318 40058ft 382kts
10-Jan-18 09:09 34.467801 -119.400595 318 40052ft 382kts
10-Jan-18 09:10 34.542360 -119.491489 318 40047ft 382kts
10-Jan-18 09:11 34.617521 -119.581317 318 40043ft 382kts
10-Jan-18 09:12 34.691556 -119.670776 318 40050ft 382kts
10-Jan-18 09:13 34.766504 -119.761727 318 40063ft 382kts
10-Jan-18 09:14 34.841152 -119.852597 318 40103ft 382kts
10-Jan-18 09:15 34.915488 -119.943338 317 40134ft 378kts
10-Jan-18 09:16 34.988753 -120.033018 317 40133ft 371kts
10-Jan-18 09:17 35.060413 -120.120967 317 40141ft 365kts
10-Jan-18 09:18 35.129171 -120.205573 317 40173ft 366kts
10-Jan-18 09:19 35.199889 -120.284379 323 40172ft 365kts
10-Jan-18 09:20 35.279858 -120.357675 324 40164ft 364kts
10-Jan-18 09:21 35.360956 -120.431351 323 40158ft 364kts
10-Jan-18 09:22 35.438457 -120.502439 323 40156ft 346kts
10-Jan-18 09:23 35.515067 -120.573111 323 39833ft 347kts
10-Jan-18 09:24 35.595188 -120.637385 327 37784ft 346kts
10-Jan-18 09:25 35.672009 -120.698557 326 35946ft 348kts
10-Jan-18 09:26 35.753084 -120.762582 324 34023ft 350kts
10-Jan-18 09:27 35.834677 -120.830024 326 32135ft 359kts
10-Jan-18 09:28 35.918909 -120.897278 326 30185ft 369kts
10-Jan-18 09:29 36.003622 -120.964774 324 28307ft 347kts
10-Jan-18 09:30 36.077576 -121.034440 323 26653ft 333kts
10-Jan-18 09:31 36.134197 -121.084466 323 25331ft 329kts
10-Jan-18 09:32 36.202636 -121.148440 321 23737ft 325kts
10-Jan-18 09:33 36.272709 -121.215956 322 22085ft 320kts
10-Jan-18 09:34 36.342534 -121.282068 321 20439ft 315kts
10-Jan-18 09:35 36.410417 -121.347290 321 18789ft 310kts
10-Jan-18 09:36 36.477165 -121.411691 321 16929ft 304kts
10-Jan-18 09:37 36.552936 -121.454966 337 15338ft 304kts
10-Jan-18 09:38 36.631339 -121.488231 338 13776ft 300kts
10-Jan-18 09:39 36.708965 -121.521210 338 12258ft 296kts
10-Jan-18 09:40 36.785323 -121.553743 339 10857ft 292kts
10-Jan-18 09:41 36.856466 -121.583728 339 9829ft 245kts
10-Jan-18 09:42 36.920505 -121.611005 339 9260ft 244kts
10-Jan-18 09:43 36.984190 -121.638029 339 8016ft 245kts
10-Jan-18 09:44 37.047143 -121.664773 339 6778ft 243kts
10-Jan-18 09:45 37.108069 -121.690696 339 5716ft 242kts
10-Jan-18 09:46 37.167508 -121.719344 321 4561ft 241kts
10-Jan-18 09:47 37.217116 -121.771242 320 3522ft 239kts
10-Jan-18 09:48 37.265999 -121.824157 319 2432ft 241kts
10-Jan-18 09:49 37.312862 -121.875340 319 1229ft 218kts
10-Jan-18 09:50 37.352927 -121.919057 318 188ft 168kts
10-Jan-18 09:51 37.371410 -121.938103 31 74ft 8kts
10-Jan-18 09:52 37.372528 -121.936662 47 74ft 0kts
10-Jan-18 09:53 37.372528 -121.936662 47 74ft 0kts
10-Jan-18 09:54 37.373020 -121.935961 61 74ft 3kts
10-Jan-18 09:55 37.371728 -121.933982 139 73ft 4kts
10-Jan-18 09:56 37.370269 -121.932361 139 74ft 4kts
10-Jan-18 09:57 37.369042 -121.931017 137 73ft 9kts
10-Jan-18 09:58 37.368007 -121.929547 68 74ft 4kts
10-Jan-18 09:59 37.368242 -121.929093 51 74ft 0kts
10-Jan-18 10:00 37.368242 -121.929093 51 74ft 0kts
10-Jan-18 10:01 37.368242 -121.929093 51 74ft 0kts
10-Jan-18 10:02 37.368242 -121.929093 51 74ft 0kts
10-Jan-18 10:03 37.368242 -121.929093 51 74ft 0kts
10-Jan-18 10:04 37.368242 -121.929093 51 74ft 0kts
10-Jan-18 10:05 37.368242 -121.929093 51 74ft 0kts

Navigation Log

Ident Type
Flight plan parsing failed, navigation log unavailable